aviador You're here:

YSWG Decoded Metar

WAGGA WAGGA in AUSTRALIA
Report Time2017-10-18 19:00:00
UTC Time2017-10-18 19:58:49
Flight Rules vfr VFR
Wind080° at 06 kt
W.Decomp.*RWY 05: 5.7 kt HW 1.9 kt RCW
RWY 12: 3.7 kt HW 4.7 kt LCW
W.Rank080° ranks 3
Current wind is below 080° avg. (7.3)
Visibility9999 m
Phenomena:N/A
Clouds:Overcast 093 Hf
Expected CloudBase > 3,600 ft AGL from Temp-Dew spread
Ceiling9,300 ft
Temp20°C (ISA +6)
Dew Point11°C (56% RH)
AAT18.1°C
QNH1020 hPa
Density Alt1,391 ft
Elevation699 ft
Report Wrong Elevation
Raw Report
YSWG 181900Z AUTO 08006KT 9999 // OVC093 20/11 Q1020=

Extra information for YSWG:More info

Metar Taf Metar & Taf Last 4 Metars F.Rules Stats Wind Profile Meteogram Temp Stats Airport Information Weather charts Add Link Nearby VenuesMetar ALERT Operation Metar Decoded Social comments